메인 페이지
METAR-TAF:

METAR-TAF

공항 :

포트워스, 텍사스, 미국

위도: 32-58-24N, 경도: 097-19-05W, 고도: 220m

현재 날씨관측

예보는 52분 전, 04:07시(UTC)에 발표되었습니다.
5kt
온도 17°C
습도 88%
기압 1011 hPa
시정: 9.7km
고도 2600ft 상공 구름 보통
고도 9500ft 상공 흐림
박무

METAR: KAFW 250407Z 28005KT 6SM BR SCT026 OVC095 17/15 A2985 RMK AO2 T01670150

시각: 23:59 (04:59 UTC)

예보

예보는 1 시간 47분 전, 03:12시(UTC)에 발표되었습니다.
예보 대상 시간: 25일 03시부터 25일 24시까지 (UTC)
서북서5kt
시정: 9.7km
고도 10000ft 상공 구름 많음
박무, 시계 내 소나기
25일 0600시부터 (UTC)
북서5kt
시정: 10km
고도 1500ft 상공 구름 보통
고도 2500ft 상공 구름 많음
25일 1200시부터 (UTC)
북서10kt
시정: 10km
고도 10000ft 상공 구름 보통
고도 25000ft 상공 구름 많음

TAF: KAFW 250312Z 2503/2524 30005KT 6SM BR VCSH BKN100 FM250600 32005KT P6SM SCT015 BKN025 FM251200 31010KT P6SM SCT100 BKN250

4,000개 이상의 공항 관측 자료 및 예보 (METAR 및 TAF 보고).

지도상에서 검색 가능한 기상관측소가 노란 점과 빨간 점으로 표시되어 있습니다.

기상관측소 명을 보려면 표시 위로 마우스를 이동하세요.

날씨 관측과 예보를 보려면 클릭하세요.

지도 변경 : 확대하려면 엑스 표시가 있는 녹색 버튼, 축소하려면 빼기 표시가 있는 녹색 버튼, 다음 페이지의 지도를 보려면 녹색 화살표를 클릭하세요.


METAR-TAF: